sensor_id;sensor_type;location;lat;lon;timestamp;temperature;humidity
28244;DHT22;15510;52.512;13.300;2023-06-24T00:00:03;17.80;99.90
28244;DHT22;15510;52.512;13.300;2023-06-24T00:02:35;17.80;99.90
28244;DHT22;15510;52.512;13.300;2023-06-24T00:07:35;17.70;99.90
28244;DHT22;15510;52.512;13.300;2023-06-24T00:10:13;17.70;99.90
28244;DHT22;15510;52.512;13.300;2023-06-24T00:12:39;17.60;99.90
28244;DHT22;15510;52.512;13.300;2023-06-24T00:15:07;17.50;99.90
28244;DHT22;15510;52.512;13.300;2023-06-24T00:17:37;17.50;99.90
28244;DHT22;15510;52.512;13.300;2023-06-24T00:20:03;17.60;99.90
28244;DHT22;15510;52.512;13.300;2023-06-24T00:22:30;17.60;99.90
28244;DHT22;15510;52.512;13.300;2023-06-24T00:24:56;17.70;99.90
28244;DHT22;15510;52.512;13.300;2023-06-24T00:27:22;17.70;99.90
28244;DHT22;15510;52.512;13.300;2023-06-24T00:29:47;17.70;99.90
28244;DHT22;15510;52.512;13.300;2023-06-24T00:32:13;17.70;99.90
28244;DHT22;15510;52.512;13.300;2023-06-24T00:34:39;17.60;99.90
28244;DHT22;15510;52.512;13.300;2023-06-24T00:37:12;17.60;99.90
28244;DHT22;15510;52.512;13.300;2023-06-24T00:39:38;17.60;99.90
28244;DHT22;15510;52.512;13.300;2023-06-24T00:42:05;17.60;99.90
28244;DHT22;15510;52.512;13.300;2023-06-24T00:44:31;17.50;99.90
28244;DHT22;15510;52.512;13.300;2023-06-24T00:46:59;17.50;99.90
28244;DHT22;15510;52.512;13.300;2023-06-24T00:49:25;17.50;99.90
28244;DHT22;15510;52.512;13.300;2023-06-24T00:51:50;17.40;99.90
28244;DHT22;15510;52.512;13.300;2023-06-24T00:54:17;17.40;99.90
28244;DHT22;15510;52.512;13.300;2023-06-24T00:56:43;17.40;99.90
28244;DHT22;15510;52.512;13.300;2023-06-24T00:59:12;17.40;99.90
28244;DHT22;15510;52.512;13.300;2023-06-24T01:01:38;17.40;99.90
28244;DHT22;15510;52.512;13.300;2023-06-24T01:04:06;17.40;99.90
28244;DHT22;15510;52.512;13.300;2023-06-24T01:06:35;17.40;99.90
28244;DHT22;15510;52.512;13.300;2023-06-24T01:09:02;17.40;99.90
28244;DHT22;15510;52.512;13.300;2023-06-24T01:11:30;17.40;99.90
28244;DHT22;15510;52.512;13.300;2023-06-24T01:13:57;17.40;99.90
28244;DHT22;15510;52.512;13.300;2023-06-24T01:19:32;17.30;99.90
28244;DHT22;15510;52.512;13.300;2023-06-24T01:25:15;17.20;99.90
28244;DHT22;15510;52.512;13.300;2023-06-24T01:28:09;17.20;99.90
28244;DHT22;15510;52.512;13.300;2023-06-24T01:31:24;17.20;99.90
28244;DHT22;15510;52.512;13.300;2023-06-24T01:33:56;17.20;99.90
28244;DHT22;15510;52.512;13.300;2023-06-24T01:36:25;17.20;99.90
28244;DHT22;15510;52.512;13.300;2023-06-24T01:38:58;17.10;99.90
28244;DHT22;15510;52.512;13.300;2023-06-24T01:41:32;17.00;99.90
28244;DHT22;15510;52.512;13.300;2023-06-24T01:44:00;17.00;99.90
28244;DHT22;15510;52.512;13.300;2023-06-24T01:46:29;17.00;99.90
28244;DHT22;15510;52.512;13.300;2023-06-24T01:48:59;17.10;99.90
28244;DHT22;15510;52.512;13.300;2023-06-24T01:51:27;17.10;99.90
28244;DHT22;15510;52.512;13.300;2023-06-24T01:54:06;17.00;99.90
28244;DHT22;15510;52.512;13.300;2023-06-24T01:56:34;17.00;99.90
28244;DHT22;15510;52.512;13.300;2023-06-24T01:59:02;17.00;99.90
28244;DHT22;15510;52.512;13.300;2023-06-24T02:01:32;17.00;99.90
28244;DHT22;15510;52.512;13.300;2023-06-24T02:04:01;16.90;99.90
28244;DHT22;15510;52.512;13.300;2023-06-24T02:06:29;16.90;99.90
28244;DHT22;15510;52.512;13.300;2023-06-24T02:08:58;16.80;99.90
28244;DHT22;15510;52.512;13.300;2023-06-24T02:11:26;16.80;99.90
28244;DHT22;15510;52.512;13.300;2023-06-24T02:13:55;16.80;99.90
28244;DHT22;15510;52.512;13.300;2023-06-24T02:16:22;16.80;99.90
28244;DHT22;15510;52.512;13.300;2023-06-24T02:18:48;16.90;99.90
28244;DHT22;15510;52.512;13.300;2023-06-24T02:21:17;16.80;99.90
28244;DHT22;15510;52.512;13.300;2023-06-24T02:23:46;16.90;99.90
28244;DHT22;15510;52.512;13.300;2023-06-24T02:26:13;17.00;99.90
28244;DHT22;15510;52.512;13.300;2023-06-24T02:28:39;16.90;99.90
28244;DHT22;15510;52.512;13.300;2023-06-24T02:31:06;16.80;99.90
28244;DHT22;15510;52.512;13.300;2023-06-24T02:33:34;16.80;99.90
28244;DHT22;15510;52.512;13.300;2023-06-24T02:36:00;16.70;99.90
28244;DHT22;15510;52.512;13.300;2023-06-24T02:38:26;16.70;99.90
28244;DHT22;15510;52.512;13.300;2023-06-24T02:40:52;16.60;99.90
28244;DHT22;15510;52.512;13.300;2023-06-24T02:43:18;16.60;99.90
28244;DHT22;15510;52.512;13.300;2023-06-24T02:45:46;16.60;99.90
28244;DHT22;15510;52.512;13.300;2023-06-24T02:48:13;16.60;99.90
28244;DHT22;15510;52.512;13.300;2023-06-24T02:50:41;16.60;99.90
28244;DHT22;15510;52.512;13.300;2023-06-24T02:53:14;16.60;99.90
28244;DHT22;15510;52.512;13.300;2023-06-24T02:55:41;16.50;99.90
28244;DHT22;15510;52.512;13.300;2023-06-24T02:58:08;16.60;99.90
28244;DHT22;15510;52.512;13.300;2023-06-24T03:01:10;16.50;99.90
28244;DHT22;15510;52.512;13.300;2023-06-24T03:03:47;16.50;99.90
28244;DHT22;15510;52.512;13.300;2023-06-24T03:06:14;16.50;99.90
28244;DHT22;15510;52.512;13.300;2023-06-24T03:08:44;16.40;99.90
28244;DHT22;15510;52.512;13.300;2023-06-24T03:11:12;16.40;99.90
28244;DHT22;15510;52.512;13.300;2023-06-24T03:13:39;16.40;99.90
28244;DHT22;15510;52.512;13.300;2023-06-24T03:16:19;16.40;99.90
28244;DHT22;15510;52.512;13.300;2023-06-24T03:18:52;16.40;99.90
28244;DHT22;15510;52.512;13.300;2023-06-24T03:21:18;16.40;99.90
28244;DHT22;15510;52.512;13.300;2023-06-24T03:23:45;16.30;99.90
28244;DHT22;15510;52.512;13.300;2023-06-24T03:26:14;16.30;99.90
28244;DHT22;15510;52.512;13.300;2023-06-24T03:28:42;16.30;99.90
28244;DHT22;15510;52.512;13.300;2023-06-24T03:31:12;16.30;99.90
28244;DHT22;15510;52.512;13.300;2023-06-24T03:33:41;16.40;99.90
28244;DHT22;15510;52.512;13.300;2023-06-24T03:36:10;16.40;99.90
28244;DHT22;15510;52.512;13.300;2023-06-24T03:38:36;16.30;99.90
28244;DHT22;15510;52.512;13.300;2023-06-24T03:41:02;16.30;99.90
28244;DHT22;15510;52.512;13.300;2023-06-24T03:43:28;16.30;99.90
28244;DHT22;15510;52.512;13.300;2023-06-24T03:45:55;16.30;99.90
28244;DHT22;15510;52.512;13.300;2023-06-24T03:48:20;16.20;99.90
28244;DHT22;15510;52.512;13.300;2023-06-24T03:50:46;16.20;99.90
28244;DHT22;15510;52.512;13.300;2023-06-24T03:53:12;16.30;99.90
28244;DHT22;15510;52.512;13.300;2023-06-24T03:55:38;16.30;99.90
28244;DHT22;15510;52.512;13.300;2023-06-24T03:58:04;16.40;99.90
28244;DHT22;15510;52.512;13.300;2023-06-24T04:00:30;16.50;99.90
28244;DHT22;15510;52.512;13.300;2023-06-24T04:02:56;16.40;99.90
28244;DHT22;15510;52.512;13.300;2023-06-24T04:05:22;16.40;99.90
28244;DHT22;15510;52.512;13.300;2023-06-24T04:07:50;16.30;99.90
28244;DHT22;15510;52.512;13.300;2023-06-24T04:10:18;16.30;99.90
28244;DHT22;15510;52.512;13.300;2023-06-24T04:12:44;16.30;99.90
28244;DHT22;15510;52.512;13.300;2023-06-24T04:15:11;16.30;99.90
28244;DHT22;15510;52.512;13.300;2023-06-24T04:17:37;16.30;99.90
28244;DHT22;15510;52.512;13.300;2023-06-24T04:20:04;16.30;99.90
28244;DHT22;15510;52.512;13.300;2023-06-24T04:22:32;16.40;99.90
28244;DHT22;15510;52.512;13.300;2023-06-24T04:24:59;16.40;99.90
28244;DHT22;15510;52.512;13.300;2023-06-24T04:27:24;16.30;99.90
28244;DHT22;15510;52.512;13.300;2023-06-24T04:29:50;16.30;99.90
28244;DHT22;15510;52.512;13.300;2023-06-24T04:32:16;16.40;99.90
28244;DHT22;15510;52.512;13.300;2023-06-24T04:34:42;16.50;99.90
28244;DHT22;15510;52.512;13.300;2023-06-24T04:37:07;16.60;99.90
28244;DHT22;15510;52.512;13.300;2023-06-24T04:39:33;16.70;99.90
28244;DHT22;15510;52.512;13.300;2023-06-24T04:41:59;16.80;99.90
28244;DHT22;15510;52.512;13.300;2023-06-24T04:44:25;16.80;99.90
28244;DHT22;15510;52.512;13.300;2023-06-24T04:46:51;16.80;99.90
28244;DHT22;15510;52.512;13.300;2023-06-24T04:49:18;16.70;99.90
28244;DHT22;15510;52.512;13.300;2023-06-24T04:51:43;16.60;99.90
28244;DHT22;15510;52.512;13.300;2023-06-24T04:54:09;16.60;99.90
28244;DHT22;15510;52.512;13.300;2023-06-24T04:56:35;16.60;99.90
28244;DHT22;15510;52.512;13.300;2023-06-24T04:59:01;16.60;99.90
28244;DHT22;15510;52.512;13.300;2023-06-24T05:01:27;16.60;99.90
28244;DHT22;15510;52.512;13.300;2023-06-24T05:03:52;16.60;99.90
28244;DHT22;15510;52.512;13.300;2023-06-24T05:06:18;16.60;99.90
28244;DHT22;15510;52.512;13.300;2023-06-24T05:08:44;16.70;99.90
28244;DHT22;15510;52.512;13.300;2023-06-24T05:11:09;16.70;99.90
28244;DHT22;15510;52.512;13.300;2023-06-24T05:13:35;16.70;99.90
28244;DHT22;15510;52.512;13.300;2023-06-24T05:16:01;16.80;99.90
28244;DHT22;15510;52.512;13.300;2023-06-24T05:18:26;16.90;99.90
28244;DHT22;15510;52.512;13.300;2023-06-24T05:20:52;16.90;99.90
28244;DHT22;15510;52.512;13.300;2023-06-24T05:23:18;17.10;99.90
28244;DHT22;15510;52.512;13.300;2023-06-24T05:25:43;17.30;99.90
28244;DHT22;15510;52.512;13.300;2023-06-24T05:28:09;17.30;99.90
28244;DHT22;15510;52.512;13.300;2023-06-24T05:30:35;17.40;99.90
28244;DHT22;15510;52.512;13.300;2023-06-24T05:33:00;17.40;99.90
28244;DHT22;15510;52.512;13.300;2023-06-24T05:35:26;17.50;99.90
28244;DHT22;15510;52.512;13.300;2023-06-24T05:37:52;17.60;99.90
28244;DHT22;15510;52.512;13.300;2023-06-24T05:40:17;17.70;99.90
28244;DHT22;15510;52.512;13.300;2023-06-24T05:42:43;17.70;99.90
28244;DHT22;15510;52.512;13.300;2023-06-24T05:45:09;17.70;99.90
28244;DHT22;15510;52.512;13.300;2023-06-24T05:47:36;17.70;99.90
28244;DHT22;15510;52.512;13.300;2023-06-24T05:50:02;17.70;99.90
28244;DHT22;15510;52.512;13.300;2023-06-24T05:52:28;17.70;99.90
28244;DHT22;15510;52.512;13.300;2023-06-24T05:54:57;17.70;99.90
28244;DHT22;15510;52.512;13.300;2023-06-24T05:57:23;17.60;99.90
28244;DHT22;15510;52.512;13.300;2023-06-24T05:59:52;17.60;99.90
28244;DHT22;15510;52.512;13.300;2023-06-24T06:02:18;17.60;99.90
28244;DHT22;15510;52.512;13.300;2023-06-24T06:04:43;17.50;99.90
28244;DHT22;15510;52.512;13.300;2023-06-24T06:07:09;17.50;99.90
28244;DHT22;15510;52.512;13.300;2023-06-24T06:09:37;17.50;99.90
28244;DHT22;15510;52.512;13.300;2023-06-24T06:12:06;17.50;99.90
28244;DHT22;15510;52.512;13.300;2023-06-24T06:14:32;17.50;99.90
28244;DHT22;15510;52.512;13.300;2023-06-24T06:16:58;17.60;99.90
28244;DHT22;15510;52.512;13.300;2023-06-24T06:19:27;17.60;99.90
28244;DHT22;15510;52.512;13.300;2023-06-24T06:21:53;17.70;99.90
28244;DHT22;15510;52.512;13.300;2023-06-24T06:24:21;17.80;99.90
28244;DHT22;15510;52.512;13.300;2023-06-24T06:26:52;17.90;99.90
28244;DHT22;15510;52.512;13.300;2023-06-24T06:29:17;18.00;99.90
28244;DHT22;15510;52.512;13.300;2023-06-24T06:31:43;18.00;99.90
28244;DHT22;15510;52.512;13.300;2023-06-24T06:34:09;18.10;99.90
28244;DHT22;15510;52.512;13.300;2023-06-24T06:36:40;18.10;99.90
28244;DHT22;15510;52.512;13.300;2023-06-24T06:39:06;18.20;99.90
28244;DHT22;15510;52.512;13.300;2023-06-24T06:41:34;18.30;99.90
28244;DHT22;15510;52.512;13.300;2023-06-24T06:44:03;18.40;99.90
28244;DHT22;15510;52.512;13.300;2023-06-24T06:46:30;18.40;99.90
28244;DHT22;15510;52.512;13.300;2023-06-24T06:48:56;18.40;99.90
28244;DHT22;15510;52.512;13.300;2023-06-24T06:51:28;18.50;99.90
28244;DHT22;15510;52.512;13.300;2023-06-24T06:53:56;18.50;99.90
28244;DHT22;15510;52.512;13.300;2023-06-24T06:56:23;18.50;99.90
28244;DHT22;15510;52.512;13.300;2023-06-24T06:58:53;18.60;99.90
28244;DHT22;15510;52.512;13.300;2023-06-24T07:01:19;18.60;99.90
28244;DHT22;15510;52.512;13.300;2023-06-24T07:03:46;18.60;99.90
28244;DHT22;15510;52.512;13.300;2023-06-24T07:06:12;18.70;99.90
28244;DHT22;15510;52.512;13.300;2023-06-24T07:08:47;18.80;99.90
28244;DHT22;15510;52.512;13.300;2023-06-24T07:11:13;18.90;99.90
28244;DHT22;15510;52.512;13.300;2023-06-24T07:13:41;19.00;99.90
28244;DHT22;15510;52.512;13.300;2023-06-24T07:16:08;19.10;99.90
28244;DHT22;15510;52.512;13.300;2023-06-24T07:18:36;19.10;99.90
28244;DHT22;15510;52.512;13.300;2023-06-24T07:21:02;19.20;99.90
28244;DHT22;15510;52.512;13.300;2023-06-24T07:23:30;19.20;99.90
28244;DHT22;15510;52.512;13.300;2023-06-24T07:25:56;19.30;99.90
28244;DHT22;15510;52.512;13.300;2023-06-24T07:28:22;19.30;99.90
28244;DHT22;15510;52.512;13.300;2023-06-24T07:30:50;19.30;99.90
28244;DHT22;15510;52.512;13.300;2023-06-24T07:33:19;19.30;99.90
28244;DHT22;15510;52.512;13.300;2023-06-24T07:35:44;19.30;99.90
28244;DHT22;15510;52.512;13.300;2023-06-24T07:38:13;19.40;99.90
28244;DHT22;15510;52.512;13.300;2023-06-24T07:40:39;19.50;99.90
28244;DHT22;15510;52.512;13.300;2023-06-24T07:43:04;19.70;99.90
28244;DHT22;15510;52.512;13.300;2023-06-24T07:45:35;19.80;99.90
28244;DHT22;15510;52.512;13.300;2023-06-24T07:48:06;19.80;99.90
28244;DHT22;15510;52.512;13.300;2023-06-24T07:50:51;19.90;99.90
28244;DHT22;15510;52.512;13.300;2023-06-24T07:53:17;20.00;99.90
28244;DHT22;15510;52.512;13.300;2023-06-24T07:55:45;20.10;99.90
28244;DHT22;15510;52.512;13.300;2023-06-24T07:58:11;20.20;99.90
28244;DHT22;15510;52.512;13.300;2023-06-24T08:00:37;20.30;99.90
28244;DHT22;15510;52.512;13.300;2023-06-24T08:03:03;20.40;99.90
28244;DHT22;15510;52.512;13.300;2023-06-24T08:05:29;20.50;99.90
28244;DHT22;15510;52.512;13.300;2023-06-24T08:07:55;20.60;99.90
28244;DHT22;15510;52.512;13.300;2023-06-24T08:10:21;20.70;99.90
28244;DHT22;15510;52.512;13.300;2023-06-24T08:12:46;20.80;99.90
28244;DHT22;15510;52.512;13.300;2023-06-24T08:15:16;20.90;99.90
28244;DHT22;15510;52.512;13.300;2023-06-24T08:17:42;20.70;99.90
28244;DHT22;15510;52.512;13.300;2023-06-24T08:20:11;20.70;99.90
28244;DHT22;15510;52.512;13.300;2023-06-24T08:22:37;20.80;99.90
28244;DHT22;15510;52.512;13.300;2023-06-24T08:25:03;20.80;99.90
28244;DHT22;15510;52.512;13.300;2023-06-24T08:27:29;20.90;99.90
28244;DHT22;15510;52.512;13.300;2023-06-24T08:30:14;21.00;99.90
28244;DHT22;15510;52.512;13.300;2023-06-24T08:32:59;20.90;99.90
28244;DHT22;15510;52.512;13.300;2023-06-24T08:35:24;20.90;99.90
28244;DHT22;15510;52.512;13.300;2023-06-24T08:37:50;20.90;99.90
28244;DHT22;15510;52.512;13.300;2023-06-24T08:40:17;21.00;99.90
28244;DHT22;15510;52.512;13.300;2023-06-24T08:42:43;21.00;99.90
28244;DHT22;15510;52.512;13.300;2023-06-24T08:45:09;21.00;99.90
28244;DHT22;15510;52.512;13.300;2023-06-24T08:51:08;20.80;99.90
28244;DHT22;15510;52.512;13.300;2023-06-24T08:53:36;20.80;99.90
28244;DHT22;15510;52.512;13.300;2023-06-24T08:56:04;20.90;99.90
28244;DHT22;15510;52.512;13.300;2023-06-24T08:58:30;21.00;99.90
28244;DHT22;15510;52.512;13.300;2023-06-24T09:00:56;21.10;99.90
28244;DHT22;15510;52.512;13.300;2023-06-24T09:03:23;21.00;99.90
28244;DHT22;15510;52.512;13.300;2023-06-24T09:06:12;21.00;99.90
28244;DHT22;15510;52.512;13.300;2023-06-24T09:08:37;21.00;99.90
28244;DHT22;15510;52.512;13.300;2023-06-24T09:11:08;21.00;99.90
28244;DHT22;15510;52.512;13.300;2023-06-24T09:13:35;21.10;99.90
28244;DHT22;15510;52.512;13.300;2023-06-24T09:16:15;21.10;99.90
28244;DHT22;15510;52.512;13.300;2023-06-24T09:18:41;21.20;99.90
28244;DHT22;15510;52.512;13.300;2023-06-24T09:21:07;21.20;99.90
28244;DHT22;15510;52.512;13.300;2023-06-24T09:23:39;21.20;99.90
28244;DHT22;15510;52.512;13.300;2023-06-24T09:26:09;21.20;99.90
28244;DHT22;15510;52.512;13.300;2023-06-24T09:28:35;21.20;99.90
28244;DHT22;15510;52.512;13.300;2023-06-24T09:31:08;21.20;99.90
28244;DHT22;15510;52.512;13.300;2023-06-24T09:33:34;21.20;99.90
28244;DHT22;15510;52.512;13.300;2023-06-24T09:36:03;21.20;99.90
28244;DHT22;15510;52.512;13.300;2023-06-24T09:38:35;21.30;99.90
28244;DHT22;15510;52.512;13.300;2023-06-24T09:41:05;21.20;99.90
28244;DHT22;15510;52.512;13.300;2023-06-24T09:43:37;21.10;99.90
28244;DHT22;15510;52.512;13.300;2023-06-24T09:46:10;21.20;99.90
28244;DHT22;15510;52.512;13.300;2023-06-24T09:48:39;21.30;99.90
28244;DHT22;15510;52.512;13.300;2023-06-24T09:51:05;21.30;99.90
28244;DHT22;15510;52.512;13.300;2023-06-24T09:53:34;21.40;99.90
28244;DHT22;15510;52.512;13.300;2023-06-24T09:56:01;21.40;99.90
28244;DHT22;15510;52.512;13.300;2023-06-24T09:58:32;21.30;99.90
28244;DHT22;15510;52.512;13.300;2023-06-24T10:01:04;21.40;99.90
28244;DHT22;15510;52.512;13.300;2023-06-24T10:03:33;21.50;99.90
28244;DHT22;15510;52.512;13.300;2023-06-24T10:06:10;21.60;99.90
28244;DHT22;15510;52.512;13.300;2023-06-24T10:08:45;21.80;99.90
28244;DHT22;15510;52.512;13.300;2023-06-24T10:11:19;21.90;99.90
28244;DHT22;15510;52.512;13.300;2023-06-24T10:13:49;21.90;99.90
28244;DHT22;15510;52.512;13.300;2023-06-24T10:16:19;22.00;99.90
28244;DHT22;15510;52.512;13.300;2023-06-24T10:18:51;22.10;99.90
28244;DHT22;15510;52.512;13.300;2023-06-24T10:21:20;22.10;99.90
28244;DHT22;15510;52.512;13.300;2023-06-24T10:26:25;22.30;99.90
28244;DHT22;15510;52.512;13.300;2023-06-24T10:29:14;22.40;99.90
28244;DHT22;15510;52.512;13.300;2023-06-24T10:39:39;22.50;99.90
28244;DHT22;15510;52.512;13.300;2023-06-24T10:42:25;22.60;99.90
28244;DHT22;15510;52.512;13.300;2023-06-24T10:44:52;22.70;99.90
28244;DHT22;15510;52.512;13.300;2023-06-24T10:47:18;22.80;99.90
28244;DHT22;15510;52.512;13.300;2023-06-24T10:49:48;22.80;99.90
28244;DHT22;15510;52.512;13.300;2023-06-24T10:52:14;22.90;99.90
28244;DHT22;15510;52.512;13.300;2023-06-24T10:54:41;23.00;99.90
28244;DHT22;15510;52.512;13.300;2023-06-24T10:57:08;23.20;99.90
28244;DHT22;15510;52.512;13.300;2023-06-24T10:59:47;23.30;99.90
28244;DHT22;15510;52.512;13.300;2023-06-24T11:02:17;23.50;99.90
28244;DHT22;15510;52.512;13.300;2023-06-24T11:04:49;23.70;99.90
28244;DHT22;15510;52.512;13.300;2023-06-24T11:07:18;23.90;99.90
28244;DHT22;15510;52.512;13.300;2023-06-24T11:09:51;24.30;99.90
28244;DHT22;15510;52.512;13.300;2023-06-24T11:12:18;24.90;99.90
28244;DHT22;15510;52.512;13.300;2023-06-24T11:14:46;25.50;99.90
28244;DHT22;15510;52.512;13.300;2023-06-24T11:17:12;26.10;99.90
28244;DHT22;15510;52.512;13.300;2023-06-24T11:19:40;26.60;99.90
28244;DHT22;15510;52.512;13.300;2023-06-24T11:22:09;27.20;99.90
28244;DHT22;15510;52.512;13.300;2023-06-24T11:24:36;27.90;98.00
28244;DHT22;15510;52.512;13.300;2023-06-24T11:27:03;28.60;95.80
28244;DHT22;15510;52.512;13.300;2023-06-24T11:29:33;29.20;95.20
28244;DHT22;15510;52.512;13.300;2023-06-24T11:32:06;29.60;92.70
28244;DHT22;15510;52.512;13.300;2023-06-24T11:34:32;30.40;87.00
28244;DHT22;15510;52.512;13.300;2023-06-24T11:36:58;30.70;84.30
28244;DHT22;15510;52.512;13.300;2023-06-24T11:39:27;31.10;84.60
28244;DHT22;15510;52.512;13.300;2023-06-24T11:41:57;31.40;79.60
28244;DHT22;15510;52.512;13.300;2023-06-24T11:44:24;31.20;77.50
28244;DHT22;15510;52.512;13.300;2023-06-24T11:46:50;31.80;76.40
28244;DHT22;15510;52.512;13.300;2023-06-24T11:49:18;32.30;73.00
28244;DHT22;15510;52.512;13.300;2023-06-24T11:51:49;32.30;73.10
28244;DHT22;15510;52.512;13.300;2023-06-24T11:54:21;32.70;70.00
28244;DHT22;15510;52.512;13.300;2023-06-24T11:56:51;32.80;68.50
28244;DHT22;15510;52.512;13.300;2023-06-24T11:59:27;32.30;68.30
28244;DHT22;15510;52.512;13.300;2023-06-24T12:01:58;32.30;65.50
28244;DHT22;15510;52.512;13.300;2023-06-24T12:04:32;32.40;65.70
28244;DHT22;15510;52.512;13.300;2023-06-24T12:06:59;32.50;67.70
28244;DHT22;15510;52.512;13.300;2023-06-24T12:09:26;33.40;64.10
28244;DHT22;15510;52.512;13.300;2023-06-24T12:11:52;33.80;63.90
28244;DHT22;15510;52.512;13.300;2023-06-24T12:14:21;33.70;65.40
28244;DHT22;15510;52.512;13.300;2023-06-24T12:16:47;33.50;62.10
28244;DHT22;15510;52.512;13.300;2023-06-24T12:19:13;33.90;61.40
28244;DHT22;15510;52.512;13.300;2023-06-24T12:21:41;34.60;59.00
28244;DHT22;15510;52.512;13.300;2023-06-24T12:24:10;35.60;57.20
28244;DHT22;15510;52.512;13.300;2023-06-24T12:26:36;35.50;56.80
28244;DHT22;15510;52.512;13.300;2023-06-24T12:29:02;35.20;55.30
28244;DHT22;15510;52.512;13.300;2023-06-24T12:31:28;35.10;55.00
28244;DHT22;15510;52.512;13.300;2023-06-24T12:33:57;35.50;55.70
28244;DHT22;15510;52.512;13.300;2023-06-24T12:36:22;35.90;53.60
28244;DHT22;15510;52.512;13.300;2023-06-24T12:38:49;36.20;51.60
28244;DHT22;15510;52.512;13.300;2023-06-24T12:41:18;36.60;51.60
28244;DHT22;15510;52.512;13.300;2023-06-24T12:43:50;36.80;51.90
28244;DHT22;15510;52.512;13.300;2023-06-24T12:46:23;36.90;51.70
28244;DHT22;15510;52.512;13.300;2023-06-24T12:48:49;37.00;50.20
28244;DHT22;15510;52.512;13.300;2023-06-24T12:51:20;36.70;51.40
28244;DHT22;15510;52.512;13.300;2023-06-24T12:53:46;36.40;51.00
28244;DHT22;15510;52.512;13.300;2023-06-24T12:56:12;36.50;50.80
28244;DHT22;15510;52.512;13.300;2023-06-24T12:58:38;36.40;50.90
28244;DHT22;15510;52.512;13.300;2023-06-24T13:01:04;36.00;50.90
28244;DHT22;15510;52.512;13.300;2023-06-24T13:03:33;36.20;51.50
28244;DHT22;15510;52.512;13.300;2023-06-24T13:06:04;36.40;53.20
28244;DHT22;15510;52.512;13.300;2023-06-24T13:08:30;37.00;50.50
28244;DHT22;15510;52.512;13.300;2023-06-24T13:10:59;37.60;48.90
28244;DHT22;15510;52.512;13.300;2023-06-24T13:13:25;38.10;49.10
28244;DHT22;15510;52.512;13.300;2023-06-24T13:15:51;38.30;47.50
28244;DHT22;15510;52.512;13.300;2023-06-24T13:18:17;38.10;46.60
28244;DHT22;15510;52.512;13.300;2023-06-24T13:20:45;38.20;47.20
28244;DHT22;15510;52.512;13.300;2023-06-24T13:23:16;38.80;46.40
28244;DHT22;15510;52.512;13.300;2023-06-24T13:25:42;39.00;45.60
28244;DHT22;15510;52.512;13.300;2023-06-24T13:28:08;38.80;44.70
28244;DHT22;15510;52.512;13.300;2023-06-24T13:30:34;38.70;45.00
28244;DHT22;15510;52.512;13.300;2023-06-24T13:33:00;38.90;44.00
28244;DHT22;15510;52.512;13.300;2023-06-24T13:35:26;39.20;44.50
28244;DHT22;15510;52.512;13.300;2023-06-24T13:37:51;38.90;44.70
28244;DHT22;15510;52.512;13.300;2023-06-24T13:40:20;38.80;44.50
28244;DHT22;15510;52.512;13.300;2023-06-24T13:42:54;37.90;45.50
28244;DHT22;15510;52.512;13.300;2023-06-24T13:45:23;38.20;44.60
28244;DHT22;15510;52.512;13.300;2023-06-24T13:47:52;38.20;45.10
28244;DHT22;15510;52.512;13.300;2023-06-24T13:50:20;38.80;43.20
28244;DHT22;15510;52.512;13.300;2023-06-24T13:52:53;39.70;41.80
28244;DHT22;15510;52.512;13.300;2023-06-24T13:55:21;40.00;42.20
28244;DHT22;15510;52.512;13.300;2023-06-24T13:57:47;39.90;41.40
28244;DHT22;15510;52.512;13.300;2023-06-24T14:00:18;40.30;41.10
28244;DHT22;15510;52.512;13.300;2023-06-24T14:02:45;40.90;40.20
28244;DHT22;15510;52.512;13.300;2023-06-24T14:05:20;41.20;40.00
28244;DHT22;15510;52.512;13.300;2023-06-24T14:07:47;41.10;39.50
28244;DHT22;15510;52.512;13.300;2023-06-24T14:10:16;40.70;40.10
28244;DHT22;15510;52.512;13.300;2023-06-24T14:12:42;40.40;40.30
28244;DHT22;15510;52.512;13.300;2023-06-24T14:15:09;39.60;40.90
28244;DHT22;15510;52.512;13.300;2023-06-24T14:17:35;39.50;41.50
28244;DHT22;15510;52.512;13.300;2023-06-24T14:20:01;39.90;41.00
28244;DHT22;15510;52.512;13.300;2023-06-24T14:22:28;40.50;40.00
28244;DHT22;15510;52.512;13.300;2023-06-24T14:24:59;41.00;39.40
28244;DHT22;15510;52.512;13.300;2023-06-24T14:27:31;41.20;38.70
28244;DHT22;15510;52.512;13.300;2023-06-24T14:29:57;40.90;38.60
28244;DHT22;15510;52.512;13.300;2023-06-24T14:32:23;41.50;39.00
28244;DHT22;15510;52.512;13.300;2023-06-24T14:34:49;41.80;38.90
28244;DHT22;15510;52.512;13.300;2023-06-24T14:37:15;42.30;38.30
28244;DHT22;15510;52.512;13.300;2023-06-24T14:39:42;42.60;36.90
28244;DHT22;15510;52.512;13.300;2023-06-24T14:42:08;42.30;36.70
28244;DHT22;15510;52.512;13.300;2023-06-24T14:44:33;41.60;37.20
28244;DHT22;15510;52.512;13.300;2023-06-24T14:46:59;39.70;38.40
28244;DHT22;15510;52.512;13.300;2023-06-24T14:49:25;38.70;40.70
28244;DHT22;15510;52.512;13.300;2023-06-24T14:51:51;38.70;40.70
28244;DHT22;15510;52.512;13.300;2023-06-24T14:54:17;39.10;40.80
28244;DHT22;15510;52.512;13.300;2023-06-24T14:56:44;37.70;40.00
28244;DHT22;15510;52.512;13.300;2023-06-24T14:59:15;35.80;42.80
28244;DHT22;15510;52.512;13.300;2023-06-24T15:01:40;34.40;45.10
28244;DHT22;15510;52.512;13.300;2023-06-24T15:04:06;33.20;45.70
28244;DHT22;15510;52.512;13.300;2023-06-24T15:06:32;31.90;48.60
28244;DHT22;15510;52.512;13.300;2023-06-24T15:08:57;31.10;50.90
28244;DHT22;15510;52.512;13.300;2023-06-24T15:11:23;30.40;54.10
28244;DHT22;15510;52.512;13.300;2023-06-24T15:13:49;29.70;54.00
28244;DHT22;15510;52.512;13.300;2023-06-24T15:16:15;29.20;59.80
28244;DHT22;15510;52.512;13.300;2023-06-24T15:18:47;28.80;61.80
28244;DHT22;15510;52.512;13.300;2023-06-24T15:21:14;28.40;63.50
28244;DHT22;15510;52.512;13.300;2023-06-24T15:23:40;28.10;65.30
28244;DHT22;15510;52.512;13.300;2023-06-24T15:26:08;27.90;69.00
28244;DHT22;15510;52.512;13.300;2023-06-24T15:28:55;27.70;68.80
28244;DHT22;15510;52.512;13.300;2023-06-24T15:31:20;27.60;72.20
28244;DHT22;15510;52.512;13.300;2023-06-24T15:33:46;27.40;70.40
28244;DHT22;15510;52.512;13.300;2023-06-24T15:36:12;27.40;74.60
28244;DHT22;15510;52.512;13.300;2023-06-24T15:38:43;27.10;76.00
28244;DHT22;15510;52.512;13.300;2023-06-24T15:41:09;27.00;75.20
28244;DHT22;15510;52.512;13.300;2023-06-24T15:43:37;26.90;79.30